createdAt,value
2022-09-30T00:00:14.793Z,4.68
2022-09-30T00:03:00.536Z,4.78
2022-09-30T00:05:46.219Z,5.15
2022-09-30T00:08:32.229Z,4.78
2022-09-30T00:11:21.010Z,5.20
2022-09-30T00:14:08.451Z,5.28
2022-09-30T00:16:53.922Z,5.32
2022-09-30T00:19:39.264Z,5.05
2022-09-30T00:22:24.754Z,4.80
2022-09-30T00:25:10.713Z,5.00
2022-09-30T00:27:56.401Z,5.10
2022-09-30T00:30:41.788Z,4.80
2022-09-30T00:33:27.658Z,4.20
2022-09-30T00:36:13.421Z,4.72
2022-09-30T00:38:58.769Z,4.38
2022-09-30T00:41:47.282Z,4.47
2022-09-30T00:44:57.212Z,3.95
2022-09-30T00:47:48.385Z,4.22
2022-09-30T00:50:48.713Z,3.80
2022-09-30T00:53:56.509Z,3.80
2022-09-30T00:56:46.170Z,4.20
2022-09-30T00:59:38.056Z,3.38
2022-09-30T01:02:24.229Z,3.40
2022-09-30T01:05:10.848Z,3.60
2022-09-30T01:07:59.945Z,3.75
2022-09-30T01:10:46.054Z,3.53
2022-09-30T01:13:34.896Z,3.60
2022-09-30T01:16:44.695Z,3.53
2022-09-30T01:20:00.243Z,3.38
2022-09-30T01:23:19.359Z,3.63
2022-09-30T01:26:20.405Z,3.03
2022-09-30T01:29:43.831Z,3.17
2022-09-30T01:32:45.860Z,3.22
2022-09-30T01:36:01.332Z,3.10
2022-09-30T01:39:01.460Z,3.40
2022-09-30T01:42:10.980Z,3.47
2022-09-30T01:45:16.740Z,3.50
2022-09-30T01:48:20.176Z,3.28
2022-09-30T01:51:37.146Z,3.13
2022-09-30T01:54:53.121Z,3.05
2022-09-30T01:58:00.698Z,3.05
2022-09-30T02:00:53.206Z,3.35
2022-09-30T02:03:48.995Z,3.00
2022-09-30T02:06:41.556Z,2.83
2022-09-30T02:12:22.543Z,2.80
2022-09-30T02:15:15.193Z,2.80
2022-09-30T02:18:08.141Z,2.80
2022-09-30T02:20:59.308Z,2.65
2022-09-30T02:23:47.581Z,2.40
2022-09-30T02:26:38.757Z,2.90
2022-09-30T02:29:29.611Z,3.05
2022-09-30T02:32:23.367Z,3.22
2022-09-30T02:35:13.545Z,2.97
2022-09-30T02:38:21.520Z,2.80
2022-09-30T02:41:13.071Z,2.90
2022-09-30T02:44:02.415Z,2.90
2022-09-30T02:46:54.749Z,3.13
2022-09-30T02:52:43.607Z,3.42
2022-09-30T02:55:47.559Z,3.00
2022-09-30T02:58:36.188Z,3.17
2022-09-30T03:01:21.694Z,2.92
2022-09-30T03:04:09.211Z,3.20
2022-09-30T03:06:55.272Z,3.08
2022-09-30T03:09:41.074Z,3.03
2022-09-30T03:13:02.162Z,3.20
2022-09-30T03:15:59.364Z,2.90
2022-09-30T03:19:33.566Z,3.20
2022-09-30T03:25:35.942Z,3.55
2022-09-30T03:28:36.543Z,3.40
2022-09-30T03:31:51.234Z,3.70
2022-09-30T03:35:13.204Z,3.55
2022-09-30T03:38:16.398Z,3.60
2022-09-30T03:41:27.575Z,3.55
2022-09-30T03:44:28.143Z,3.75
2022-09-30T03:47:16.565Z,3.85
2022-09-30T03:50:06.889Z,3.83
2022-09-30T03:52:52.712Z,4.30
2022-09-30T03:55:47.932Z,3.70
2022-09-30T03:58:33.962Z,4.25
2022-09-30T04:01:21.711Z,3.80
2022-09-30T04:04:07.254Z,3.97
2022-09-30T04:06:52.683Z,3.35
2022-09-30T04:09:39.512Z,4.18
2022-09-30T04:12:25.752Z,4.15
2022-09-30T04:15:11.151Z,3.90
2022-09-30T04:17:56.725Z,3.70
2022-09-30T04:20:42.115Z,3.88
2022-09-30T04:23:27.701Z,3.88
2022-09-30T04:26:15.994Z,3.85
2022-09-30T04:29:01.425Z,4.20
2022-09-30T04:31:46.590Z,4.07
2022-09-30T04:34:32.780Z,4.20
2022-09-30T04:37:17.805Z,4.38
2022-09-30T04:40:03.904Z,4.38
2022-09-30T04:42:49.225Z,4.35
2022-09-30T04:45:35.116Z,4.47
2022-09-30T04:48:22.546Z,4.20
2022-09-30T04:51:07.932Z,4.35
2022-09-30T04:53:53.155Z,4.43
2022-09-30T04:56:38.924Z,4.43
2022-09-30T04:59:24.160Z,4.43
2022-09-30T05:02:12.757Z,4.47
2022-09-30T05:04:58.008Z,5.00
2022-09-30T05:07:44.350Z,4.53
2022-09-30T05:10:30.162Z,4.57
2022-09-30T05:13:15.724Z,4.40
2022-09-30T05:16:02.129Z,4.55
2022-09-30T05:18:47.821Z,4.57
2022-09-30T05:21:33.244Z,4.20
2022-09-30T05:24:19.085Z,4.65
2022-09-30T05:27:04.612Z,4.50
2022-09-30T05:29:49.975Z,4.60
2022-09-30T05:32:35.386Z,4.70
2022-09-30T05:35:20.771Z,5.13
2022-09-30T05:38:06.242Z,4.38
2022-09-30T05:40:52.544Z,5.38
2022-09-30T05:43:39.510Z,5.10
2022-09-30T05:46:25.140Z,5.05
2022-09-30T05:49:10.416Z,5.22
2022-09-30T05:51:56.393Z,5.07
2022-09-30T05:54:42.389Z,4.90
2022-09-30T05:57:30.644Z,5.00
2022-09-30T06:00:16.991Z,5.60
2022-09-30T06:03:02.637Z,5.68
2022-09-30T06:05:48.671Z,5.28
2022-09-30T06:08:34.125Z,5.40
2022-09-30T06:11:23.296Z,5.28
2022-09-30T06:14:09.516Z,5.00
2022-09-30T06:16:54.861Z,5.10
2022-09-30T06:19:41.090Z,4.72
2022-09-30T06:22:27.049Z,4.93
2022-09-30T06:25:13.138Z,4.63
2022-09-30T06:27:59.081Z,4.72
2022-09-30T06:30:44.966Z,4.30
2022-09-30T06:33:31.881Z,4.18
2022-09-30T06:36:17.492Z,4.05
2022-09-30T06:39:04.658Z,4.00
2022-09-30T06:41:50.020Z,4.07
2022-09-30T06:44:52.622Z,3.90
2022-09-30T06:47:41.924Z,3.47
2022-09-30T06:50:31.617Z,3.40
2022-09-30T06:53:17.099Z,3.50
2022-09-30T06:56:02.489Z,3.67
2022-09-30T06:58:48.196Z,3.53
2022-09-30T07:01:33.293Z,3.35
2022-09-30T07:04:19.213Z,3.30
2022-09-30T07:07:04.338Z,3.35
2022-09-30T07:09:49.962Z,3.08
2022-09-30T07:12:35.295Z,3.55
2022-09-30T07:15:24.280Z,3.35
2022-09-30T07:18:10.322Z,3.25
2022-09-30T07:20:56.874Z,3.20
2022-09-30T07:23:47.679Z,3.08
2022-09-30T07:26:33.467Z,2.80
2022-09-30T07:29:19.015Z,2.60
2022-09-30T07:32:04.571Z,2.50
2022-09-30T07:34:49.887Z,3.05
2022-09-30T07:37:36.085Z,2.80
2022-09-30T07:40:21.365Z,2.22
2022-09-30T07:43:06.689Z,2.15
2022-09-30T07:45:54.282Z,2.10
2022-09-30T07:48:44.741Z,2.10
2022-09-30T07:51:37.010Z,2.08
2022-09-30T07:54:26.545Z,2.05
2022-09-30T07:57:12.370Z,2.13
2022-09-30T07:59:57.951Z,2.00
2022-09-30T08:02:43.133Z,2.05
2022-09-30T08:05:28.589Z,2.20
2022-09-30T08:08:14.831Z,1.88
2022-09-30T08:11:05.761Z,1.83
2022-09-30T08:13:52.751Z,2.10
2022-09-30T08:16:38.188Z,1.90
2022-09-30T08:19:24.972Z,1.90
2022-09-30T08:22:10.674Z,1.73
2022-09-30T08:24:55.896Z,1.70
2022-09-30T08:27:41.375Z,1.50
2022-09-30T08:30:26.897Z,1.33
2022-09-30T08:33:12.389Z,1.40
2022-09-30T08:36:05.781Z,1.50
2022-09-30T08:38:51.144Z,1.60
2022-09-30T08:41:39.384Z,1.52
2022-09-30T08:44:46.475Z,1.52
2022-09-30T08:47:46.134Z,1.60
2022-09-30T08:51:07.365Z,1.52
2022-09-30T08:53:54.513Z,1.65
2022-09-30T08:56:40.143Z,1.58
2022-09-30T08:59:44.160Z,1.90
2022-09-30T09:03:01.612Z,1.85
2022-09-30T09:05:58.358Z,2.00
2022-09-30T09:08:58.275Z,2.10
2022-09-30T09:11:59.741Z,2.15
2022-09-30T09:14:57.227Z,1.98
2022-09-30T09:18:22.593Z,2.17
2022-09-30T09:21:22.622Z,2.10
2022-09-30T09:24:19.516Z,2.30
2022-09-30T09:27:26.069Z,2.60
2022-09-30T09:30:14.033Z,2.90
2022-09-30T09:33:18.630Z,2.80
2022-09-30T09:36:30.326Z,3.20
2022-09-30T09:40:00.361Z,3.13
2022-09-30T09:43:03.495Z,3.30
2022-09-30T09:46:26.444Z,3.28
2022-09-30T09:52:18.735Z,3.88
2022-09-30T09:55:04.551Z,3.50
2022-09-30T09:58:06.243Z,3.13
2022-09-30T10:00:51.823Z,3.40
2022-09-30T10:03:37.494Z,3.40
2022-09-30T10:06:23.061Z,3.67
2022-09-30T10:09:26.013Z,3.28
2022-09-30T10:15:03.079Z,3.75
2022-09-30T10:17:57.310Z,4.22
2022-09-30T10:20:56.531Z,3.90
2022-09-30T10:23:42.126Z,3.78
2022-09-30T10:26:29.190Z,4.25
2022-09-30T10:29:33.561Z,4.05
2022-09-30T10:32:20.610Z,4.05
2022-09-30T10:35:24.077Z,3.78
2022-09-30T10:38:12.953Z,3.50
2022-09-30T10:40:58.997Z,3.55
2022-09-30T10:43:48.226Z,3.00
2022-09-30T10:46:40.177Z,2.28
2022-09-30T10:49:55.416Z,1.92
2022-09-30T10:52:55.622Z,1.38
2022-09-30T10:55:44.133Z,1.23
2022-09-30T10:58:42.598Z,1.10
2022-09-30T11:01:41.196Z,1.00
2022-09-30T11:04:35.369Z,0.80
2022-09-30T11:07:32.836Z,0.95
2022-09-30T11:10:20.914Z,0.90
2022-09-30T11:13:29.520Z,0.80
2022-09-30T11:16:37.028Z,0.80
2022-09-30T11:19:30.250Z,0.65
2022-09-30T11:22:41.919Z,0.60
2022-09-30T11:25:43.088Z,0.60
2022-09-30T11:28:47.025Z,0.50
2022-09-30T11:32:00.037Z,0.60
2022-09-30T11:35:07.576Z,0.70
2022-09-30T11:38:16.793Z,0.50
2022-09-30T11:41:15.354Z,0.63
2022-09-30T11:44:15.877Z,0.70
2022-09-30T11:47:22.352Z,0.70
2022-09-30T11:50:18.993Z,0.50
2022-09-30T11:53:15.053Z,0.50
2022-09-30T11:56:12.293Z,0.50
2022-09-30T11:59:00.914Z,0.50
2022-09-30T12:01:49.884Z,0.60
2022-09-30T12:04:45.168Z,0.65
2022-09-30T12:07:46.365Z,0.60
2022-09-30T12:10:37.699Z,0.50
2022-09-30T12:13:31.136Z,0.50
2022-09-30T12:16:23.191Z,0.60
2022-09-30T12:19:29.216Z,0.63
2022-09-30T12:22:19.851Z,0.70
2022-09-30T12:25:13.668Z,0.70
2022-09-30T12:28:42.598Z,0.70
2022-09-30T12:31:58.218Z,0.63
2022-09-30T12:35:05.964Z,0.70
2022-09-30T12:38:18.785Z,0.80
2022-09-30T12:41:26.069Z,0.80
2022-09-30T12:44:32.987Z,0.88
2022-09-30T12:47:24.012Z,0.90
2022-09-30T12:50:09.976Z,0.80
2022-09-30T12:53:00.139Z,1.00
2022-09-30T12:55:46.187Z,0.98
2022-09-30T12:58:35.932Z,1.20
2022-09-30T13:01:27.992Z,1.38
2022-09-30T13:07:03.690Z,1.25
2022-09-30T13:10:22.097Z,1.50
2022-09-30T13:13:10.264Z,1.63
2022-09-30T13:16:03.009Z,1.75
2022-09-30T13:18:48.304Z,1.83
2022-09-30T13:21:33.692Z,1.70
2022-09-30T13:24:19.000Z,1.50
2022-09-30T13:27:15.208Z,1.52
2022-09-30T13:30:01.638Z,1.60
2022-09-30T13:32:51.439Z,1.50
2022-09-30T13:35:50.192Z,1.85
2022-09-30T13:38:40.584Z,1.33
2022-09-30T13:41:26.842Z,1.02
2022-09-30T13:44:21.352Z,0.98
2022-09-30T13:47:29.794Z,1.52
2022-09-30T13:50:31.533Z,1.30
2022-09-30T13:53:32.932Z,1.30
2022-09-30T13:56:26.171Z,1.30
2022-09-30T13:59:39.327Z,1.17
2022-09-30T14:02:55.896Z,1.10
2022-09-30T14:06:02.230Z,1.20
2022-09-30T14:09:17.613Z,1.15
2022-09-30T14:12:35.648Z,1.23
2022-09-30T14:15:46.995Z,1.17
2022-09-30T14:19:02.841Z,1.30
2022-09-30T14:21:55.041Z,1.20
2022-09-30T14:24:40.801Z,1.05
2022-09-30T14:27:56.895Z,1.50
2022-09-30T14:31:03.545Z,1.60
2022-09-30T14:33:50.276Z,1.17
2022-09-30T14:36:35.868Z,1.10
2022-09-30T14:39:32.456Z,1.08
2022-09-30T14:42:41.115Z,0.88
2022-09-30T14:45:31.545Z,0.90
2022-09-30T14:48:21.101Z,1.00
2022-09-30T14:51:17.518Z,1.00
2022-09-30T14:54:15.754Z,0.95
2022-09-30T14:57:02.890Z,0.95
2022-09-30T14:59:47.979Z,0.90
2022-09-30T15:02:33.410Z,1.00
2022-09-30T15:05:19.120Z,0.73
2022-09-30T15:08:17.183Z,1.00
2022-09-30T15:11:02.894Z,0.90
2022-09-30T15:13:59.024Z,1.10
2022-09-30T15:16:49.751Z,1.30
2022-09-30T15:19:43.300Z,1.20
2022-09-30T15:22:29.910Z,1.00
2022-09-30T15:25:16.244Z,1.40
2022-09-30T15:28:01.639Z,1.20
2022-09-30T15:30:47.415Z,1.20
2022-09-30T15:33:32.815Z,1.35
2022-09-30T15:36:18.761Z,1.38
2022-09-30T15:39:05.718Z,1.10
2022-09-30T15:41:52.340Z,1.42
2022-09-30T15:44:39.413Z,1.40
2022-09-30T15:47:27.995Z,1.83
2022-09-30T15:50:39.805Z,1.67
2022-09-30T15:53:45.851Z,1.77
2022-09-30T15:56:34.372Z,1.60
2022-09-30T15:59:20.202Z,1.70
2022-09-30T16:02:10.255Z,1.80
2022-09-30T16:04:56.322Z,1.88
2022-09-30T16:07:42.212Z,2.10
2022-09-30T16:10:29.271Z,2.15
2022-09-30T16:13:15.965Z,2.75
2022-09-30T16:16:02.180Z,2.22
2022-09-30T16:18:48.708Z,2.80
2022-09-30T16:21:45.153Z,2.40
2022-09-30T16:24:32.144Z,2.42
2022-09-30T16:27:29.127Z,2.35
2022-09-30T16:30:16.310Z,2.55
2022-09-30T16:33:06.627Z,2.17
2022-09-30T16:35:52.191Z,2.28
2022-09-30T16:38:38.694Z,2.30
2022-09-30T16:41:25.730Z,2.50
2022-09-30T16:44:11.266Z,2.83
2022-09-30T16:46:56.673Z,2.47
2022-09-30T16:49:43.036Z,2.83
2022-09-30T16:52:28.469Z,2.50
2022-09-30T16:58:05.826Z,3.17
2022-09-30T17:00:52.207Z,2.40
2022-09-30T17:03:37.564Z,2.80
2022-09-30T17:06:29.643Z,2.33
2022-09-30T17:09:15.324Z,2.55
2022-09-30T17:12:01.200Z,2.97
2022-09-30T17:14:46.479Z,2.85
2022-09-30T17:17:32.212Z,2.60
2022-09-30T17:20:17.698Z,2.80
2022-09-30T17:23:07.319Z,2.90
2022-09-30T17:25:54.628Z,3.05
2022-09-30T17:28:40.008Z,3.10
2022-09-30T17:31:25.334Z,2.38
2022-09-30T17:34:10.725Z,3.00
2022-09-30T17:36:56.460Z,2.80
2022-09-30T17:39:42.402Z,3.13
2022-09-30T17:42:46.119Z,3.00
2022-09-30T17:45:31.412Z,2.97
2022-09-30T17:48:18.126Z,2.85
2022-09-30T17:51:03.647Z,2.72
2022-09-30T17:53:49.336Z,2.72
2022-09-30T17:56:35.758Z,3.22
2022-09-30T17:59:21.678Z,3.40
2022-09-30T18:02:07.023Z,2.78
2022-09-30T18:04:54.256Z,2.78
2022-09-30T18:07:39.985Z,2.95
2022-09-30T18:10:26.548Z,3.10
2022-09-30T18:13:11.761Z,3.15
2022-09-30T18:16:01.954Z,3.10
2022-09-30T18:18:47.400Z,3.00
2022-09-30T18:21:35.880Z,2.72
2022-09-30T18:24:41.541Z,3.00
2022-09-30T18:27:29.137Z,3.05
2022-09-30T18:30:14.635Z,2.80
2022-09-30T18:32:59.820Z,2.72
2022-09-30T18:35:46.447Z,3.35
2022-09-30T18:38:33.241Z,3.00
2022-09-30T18:41:19.057Z,2.63
2022-09-30T18:44:04.253Z,3.20
2022-09-30T18:46:50.726Z,2.88
2022-09-30T18:49:35.821Z,2.90
2022-09-30T18:52:21.346Z,3.15
2022-09-30T18:55:09.239Z,3.30
2022-09-30T18:57:55.399Z,3.33
2022-09-30T19:00:40.593Z,2.88
2022-09-30T19:03:31.654Z,3.05
2022-09-30T19:06:16.817Z,2.55
2022-09-30T19:09:02.487Z,3.08
2022-09-30T19:11:49.101Z,2.80
2022-09-30T19:14:34.825Z,2.97
2022-09-30T19:17:20.022Z,2.65
2022-09-30T19:20:06.251Z,3.08
2022-09-30T19:22:51.913Z,2.53
2022-09-30T19:25:39.018Z,3.00
2022-09-30T19:28:24.418Z,2.90
2022-09-30T19:31:13.128Z,3.00
2022-09-30T19:33:59.003Z,3.10
2022-09-30T19:36:50.784Z,3.00
2022-09-30T19:39:45.498Z,3.13
2022-09-30T19:42:32.932Z,3.30
2022-09-30T19:45:25.767Z,3.33
2022-09-30T19:48:11.679Z,3.05
2022-09-30T19:51:06.048Z,2.80
2022-09-30T19:54:03.958Z,2.70
2022-09-30T19:56:51.732Z,2.60
2022-09-30T19:59:37.246Z,2.80
2022-09-30T20:02:23.047Z,2.92
2022-09-30T20:05:08.815Z,3.13
2022-09-30T20:07:54.084Z,2.70
2022-09-30T20:10:39.565Z,2.60
2022-09-30T20:13:24.896Z,2.50
2022-09-30T20:16:13.471Z,2.70
2022-09-30T20:18:58.510Z,2.67
2022-09-30T20:21:45.182Z,2.60
2022-09-30T20:24:31.796Z,3.38
2022-09-30T20:27:17.300Z,2.88
2022-09-30T20:30:03.102Z,2.67
2022-09-30T20:32:48.867Z,2.70
2022-09-30T20:35:37.408Z,3.05
2022-09-30T20:38:24.793Z,2.80
2022-09-30T20:41:10.150Z,2.83
2022-09-30T20:43:55.677Z,2.40
2022-09-30T20:46:41.830Z,2.60
2022-09-30T20:49:28.607Z,2.42
2022-09-30T20:52:15.040Z,2.30
2022-09-30T20:55:00.318Z,2.05
2022-09-30T20:57:45.843Z,2.30
2022-09-30T21:00:33.070Z,2.30
2022-09-30T21:03:18.480Z,2.22
2022-09-30T21:06:07.352Z,2.10
2022-09-30T21:08:53.481Z,2.45
2022-09-30T21:11:41.263Z,2.50
2022-09-30T21:14:26.723Z,2.40
2022-09-30T21:17:12.163Z,2.60
2022-09-30T21:19:57.624Z,2.80
2022-09-30T21:22:43.271Z,3.10
2022-09-30T21:25:30.870Z,2.90
2022-09-30T21:28:16.377Z,2.97
2022-09-30T21:31:18.391Z,2.75
2022-09-30T21:34:03.983Z,2.90
2022-09-30T21:36:49.190Z,2.90
2022-09-30T21:39:34.536Z,2.95
2022-09-30T21:42:19.933Z,2.42
2022-09-30T21:45:05.825Z,3.03
2022-09-30T21:47:59.737Z,3.00
2022-09-30T21:50:45.178Z,2.80
2022-09-30T21:53:30.306Z,2.92
2022-09-30T21:56:15.813Z,2.60
2022-09-30T21:59:01.262Z,2.90
2022-09-30T22:01:46.612Z,3.10
2022-09-30T22:04:32.283Z,2.97
2022-09-30T22:07:17.754Z,3.20
2022-09-30T22:10:03.659Z,3.20
2022-09-30T22:12:51.151Z,3.40
2022-09-30T22:15:36.573Z,3.00
2022-09-30T22:18:21.872Z,3.17
2022-09-30T22:21:12.786Z,3.28
2022-09-30T22:23:58.555Z,3.25
2022-09-30T22:26:45.664Z,2.92
2022-09-30T22:29:31.602Z,3.35
2022-09-30T22:32:16.838Z,3.13
2022-09-30T22:35:21.353Z,2.90
2022-09-30T22:38:14.781Z,3.03
2022-09-30T22:41:00.028Z,2.90
2022-09-30T22:43:45.565Z,3.10
2022-09-30T22:46:33.651Z,2.80
2022-09-30T22:49:19.285Z,2.97
2022-09-30T22:52:04.656Z,3.28
2022-09-30T22:54:49.982Z,2.78
2022-09-30T22:57:35.595Z,3.25
2022-09-30T23:00:20.951Z,3.47
2022-09-30T23:03:08.262Z,2.92
2022-09-30T23:06:00.156Z,3.30
2022-09-30T23:08:46.030Z,3.17
2022-09-30T23:11:31.663Z,3.55
2022-09-30T23:14:18.489Z,3.38
2022-09-30T23:17:03.761Z,3.55
2022-09-30T23:19:49.179Z,3.55
2022-09-30T23:22:34.593Z,3.70
2022-09-30T23:25:20.030Z,3.90
2022-09-30T23:28:05.295Z,4.00
2022-09-30T23:30:50.732Z,3.97
2022-09-30T23:33:37.880Z,4.40
2022-09-30T23:36:31.887Z,4.30
2022-09-30T23:39:19.370Z,4.70
2022-09-30T23:42:04.804Z,4.70
2022-09-30T23:44:50.034Z,4.78
2022-09-30T23:47:35.728Z,4.57
2022-09-30T23:50:21.041Z,5.10
2022-09-30T23:53:06.619Z,5.72
2022-09-30T23:56:00.977Z,5.90
2022-09-30T23:58:47.450Z,6.43
